This is the latest recevied weather packets stored in our database for station/object IW1RID-3. If no packets are shown the sender has not sent any weather packets the latest 10 day(s).
| Time | Temp. | Humidity | Pressure | Rain* | Wind** | Luminosity | Snow |
|---|---|---|---|---|---|---|---|
| 1777464948 | 22.22° C | 49% | 1072.7 hPa | - | - | - | - |
| 1777463742 | 21.67° C | 52% | 1072.7 hPa | - | - | - | - |
| 1777462539 | 21.67° C | 54% | 1072.6 hPa | - | - | - | - |
| 1777461332 | 21.67° C | 52% | 1072.6 hPa | - | - | - | - |
| 1777460127 | 21.67° C | 53% | 1072.5 hPa | - | - | - | - |
| 1777458923 | 21.67° C | 53% | 1072.5 hPa | - | - | - | - |
| 1777457717 | 21.11° C | 55% | 1072.7 hPa | - | - | - | - |
| 1777456513 | 21.67° C | 51% | 1072.7 hPa | - | - | - | - |
| 1777455307 | 20.56° C | 52% | 1072.9 hPa | - | - | - | - |
| 1777454102 | 21.11° C | 52% | 1072.8 hPa | - | - | - | - |
| 1777452899 | 21.11° C | 50% | 1072.7 hPa | - | - | - | - |
| 1777451693 | 20.56° C | 57% | 1072.8 hPa | - | - | - | - |
| 1777450487 | 18.89° C | 57% | 1073 hPa | - | - | - | - |
| 1777449283 | 17.22° C | 55% | 1073.3 hPa | - | - | - | - |
| 1777448078 | 15.56° C | 60% | 1073.4 hPa | - | - | - | - |
| 1777446873 | 14.44° C | 63% | 1073.5 hPa | - | - | - | - |
| 1777445669 | 13.89° C | 68% | 1073.7 hPa | - | - | - | - |
| 1777444464 | 12.78° C | 69% | 1073.6 hPa | - | - | - | - |
| 1777443260 | 12.22° C | 69% | 1073.5 hPa | - | - | - | - |
| 1777442055 | 11.67° C | 72% | 1073.4 hPa | - | - | - | - |
| 1777440850 | 11.11° C | 72% | 1073.3 hPa | - | - | - | - |
| 1777439644 | 11.11° C | 72% | 1073.3 hPa | - | - | - | - |
| 1777437235 | 11.11° C | 72% | 1073.1 hPa | - | - | - | - |
| 1777436029 | 11.11° C | 72% | 1073.2 hPa | - | - | - | - |
| 1777433620 | 10.56° C | 77% | 1073.2 hPa | - | - | - | - |
* Rain since midnight (hover to see other rain measurements)
** Current wind speed in m/s (hover to see current wind gust speed)